Time;durP1;ratioP1;P1;durP2;ratioP2;P2;SDS_P1;SDS_P2;PMS_P1;PMS_P2;Temp;Humidity;BMP_temperature;BMP_pressure;BME280_temperature;BME280_humidity;BME280_pressure;Samples;Min_cycle;Max_cycle;Signal;HPM_P1;HPM_P2
2021/11/07 09:07:22;;;;;;;13.27;2.53;;;9.90;99.40;;;;;;5026155;28;20053;-73
2021/11/07 09:09:49;;;;;;;15.40;2.70;;;10.10;99.30;;;;;;5025248;28;20081;-78
2021/11/07 09:12:15;;;;;;;13.70;2.67;;;10.30;99.50;;;;;;5028062;28;20042;-83
2021/11/07 09:14:41;;;;;;;11.23;2.63;;;10.50;99.20;;;;;;5030464;28;20050;-79
2021/11/07 09:17:12;;;;;;;15.83;2.90;;;10.70;98.70;;;;;;5030583;28;20038;-80
2021/11/07 09:19:39;;;;;;;11.70;2.40;;;10.90;98.70;;;;;;5026949;28;20042;-76
2021/11/07 09:22:43;;;;;;;10.43;1.97;;;10.90;98.20;;;;;;5025188;28;20379;-86
2021/11/07 09:25:01;;;;;;;13.77;2.60;;;11.00;97.30;;;;;;5027255;28;20103;-83
2021/11/07 09:32:30;;;;;;;12.57;2.90;;;11.10;97.10;;;;;;5026658;28;20065;-81
2021/11/07 09:35:10;;;;;;;11.57;2.47;;;11.10;96.90;;;;;;5024607;28;20056;-82
2021/11/07 09:40:14;;;;;;;10.97;2.60;;;11.10;96.10;;;;;;5026149;28;20058;-85
2021/11/07 09:43:09;;;;;;;15.53;2.37;;;11.10;95.70;;;;;;5028768;28;20490;-81
2021/11/07 09:45:46;;;;;;;16.90;2.80;;;11.10;96.10;;;;;;5026574;28;20042;-80
2021/11/07 09:48:21;;;;;;;12.57;3.60;;;11.10;95.90;;;;;;5024500;28;20521;-83
2021/11/07 09:50:47;;;;;;;16.83;2.90;;;11.10;96.00;;;;;;5029605;28;20072;-79
2021/11/07 09:53:16;;;;;;;16.20;2.73;;;11.20;96.10;;;;;;5029383;28;20073;-82
2021/11/07 09:55:44;;;;;;;16.00;3.00;;;11.30;96.00;;;;;;5022603;28;20096;-72
2021/11/07 09:58:10;;;;;;;19.30;3.33;;;11.40;95.70;;;;;;5024919;28;20053;-71
2021/11/07 10:00:42;;;;;;;14.90;3.03;;;11.40;95.50;;;;;;5019030;28;20061;-72
2021/11/07 10:03:11;;;;;;;14.90;3.40;;;11.30;94.80;;;;;;5010359;28;20514;-71
2021/11/07 10:05:42;;;;;;;11.77;3.27;;;11.30;95.10;;;;;;5010454;28;20054;-71
2021/11/07 10:08:10;;;;;;;13.43;2.97;;;11.30;94.90;;;;;;5009940;28;20057;-72
2021/11/07 10:10:40;;;;;;;12.47;3.50;;;11.30;95.50;;;;;;5010378;28;20127;-71
2021/11/07 10:13:22;;;;;;;15.80;3.20;;;11.40;95.30;;;;;;5011365;28;20491;-71
2021/11/07 10:16:01;;;;;;;17.37;3.27;;;11.40;95.20;;;;;;5009959;28;20356;-72
2021/11/07 10:18:43;;;;;;;12.83;3.37;;;11.50;95.40;;;;;;5009316;28;20050;-69
2021/11/07 10:21:21;;;;;;;17.97;3.37;;;11.60;95.40;;;;;;5010670;28;20057;-69
2021/11/07 10:24:06;;;;;;;16.03;2.60;;;11.80;95.30;;;;;;5010021;28;20034;-70
2021/11/07 12:08:08;;;;;;;18.60;3.60;;;11.50;95.10;;;;;;5124362;28;20058;-75
2021/11/07 12:10:42;;;;;;;19.97;3.53;;;11.40;95.80;;;;;;5124729;28;20055;-70
2021/11/07 12:13:53;;;;;;;21.97;4.13;;;11.40;96.40;;;;;;5125410;28;20497;-68
2021/11/07 12:16:59;;;;;;;17.77;3.63;;;11.60;96.90;;;;;;5124449;28;20043;-79
2021/11/07 12:19:31;;;;;;;21.50;3.80;;;11.80;97.00;;;;;;5125301;28;20104;-73
2021/11/07 12:22:07;;;;;;;19.83;3.63;;;12.00;97.20;;;;;;5124172;28;20039;-72
2021/11/07 12:24:47;;;;;;;19.47;3.83;;;12.10;97.20;;;;;;5125554;28;20051;-67
2021/11/07 12:27:17;;;;;;;16.70;3.60;;;12.20;97.10;;;;;;5124353;28;20126;-70
2021/11/07 12:29:44;;;;;;;21.20;3.53;;;12.10;96.70;;;;;;5124571;28;20391;-68
2021/11/07 12:32:11;;;;;;;18.57;3.37;;;12.10;96.30;;;;;;5124560;28;20040;-69
2021/11/07 12:35:04;;;;;;;19.70;4.03;;;12.00;96.20;;;;;;5125121;28;20126;-69
2021/11/07 12:41:00;;;;;;;25.70;4.50;;;12.10;95.20;;;;;;5125952;28;20062;-70
2021/11/07 12:43:36;;;;;;;15.50;3.30;;;12.00;95.50;;;;;;5124116;28;20420;-68
2021/11/07 12:46:19;;;;;;;13.10;3.37;;;11.80;95.40;;;;;;5125787;27;20096;-70
2021/11/07 12:48:49;;;;;;;10.67;2.97;;;11.50;95.10;;;;;;5124649;28;20083;-70
2021/11/07 12:51:26;;;;;;;14.87;3.20;;;11.20;95.60;;;;;;5124449;27;20043;-70
2021/11/07 12:54:01;;;;;;;13.90;3.07;;;11.00;96.10;;;;;;5125070;28;20126;-71
2021/11/07 12:56:41;;;;;;;10.13;2.43;;;10.90;96.50;;;;;;5123431;28;20096;-70
2021/11/07 12:59:10;;;;;;;15.87;2.70;;;10.80;96.50;;;;;;5124486;28;20460;-70
2021/11/07 13:01:54;;;;;;;11.37;2.93;;;10.80;96.40;;;;;;5125149;27;20411;-73
2021/11/07 13:04:22;;;;;;;13.57;3.13;;;10.70;96.60;;;;;;5124526;27;20063;-71
2021/11/07 13:06:53;;;;;;;15.10;2.73;;;10.70;96.90;;;;;;5123656;28;20492;-70
2021/11/07 13:09:21;;;;;;;14.93;3.73;;;10.80;97.00;;;;;;5123867;28;20100;-71
2021/11/07 13:11:51;;;;;;;19.90;3.60;;;10.80;97.10;;;;;;5123202;28;20047;-71
2021/11/07 13:14:33;;;;;;;16.87;3.17;;;10.90;97.10;;;;;;5123463;28;20032;-71
2021/11/07 13:18:01;;;;;;;16.07;3.20;;;11.00;97.00;;;;;;5111861;28;20054;-70
2021/11/07 13:20:36;;;;;;;19.93;5.07;;;11.00;96.80;;;;;;5095902;28;20055;-70
2021/11/07 13:28:36;;;;;;;;;;;11.30;96.80;;;;;;5110620;28;20142;-70
2021/11/07 13:31:16;;;;;;;21.27;3.97;;;11.30;95.70;;;;;;5111543;27;19924;-70
2021/11/07 13:33:44;;;;;;;23.73;4.30;;;11.20;96.50;;;;;;5111141;28;20048;-71
2021/11/07 13:36:16;;;;;;;20.03;4.63;;;11.20;96.60;;;;;;5111112;28;20100;-70
2021/11/07 13:38:51;;;;;;;22.33;4.33;;;11.00;96.80;;;;;;5110212;28;20056;-72
